Henderson, Nevada Weather observations

Data are for observation ending at time listed.
 Day   Time    Ave.   Ave.  Ave.  Vector   Max.   Stn.    Total    Solar   Ave.  
  of    of     Air    Rel.  Wind   Wind    Wind   Baro.  Precip.   Rad.    Soil  
Year   Day     Temp.  Hum.  Speed  Dir.    Gust   Pres.                    Temp. 
2014   (PST)    F      %     mph   deg.    mph     mb.     in.     W/m2     F   
------------------------------------------------------------------------------
 210    0:00   78.1    60    0.1   261      0.8   939.5    0.00       0    75.9
 210    0:10   78.2    58    0.2   134      1.0   939.5    0.00       0    75.7
 210    0:20   78.5    57    1.4   166      3.1   939.5    0.00       0    75.5
 210    0:30   78.7    58    1.6   132      3.0   939.6    0.00       0    75.7
 210    0:40   78.9    58    1.2   139      2.3   939.5    0.00       0    76.0
 210    0:50   78.9    58    2.1   186      3.7   939.4    0.00       0    76.0
 210    1:00   78.5    60    1.7   193      3.6   939.5    0.00       0    75.8
 210    1:10   78.3    59    1.3   209      3.1   939.5    0.00       0    75.6
 210    1:20   78.2    59    0.7   249      1.4   939.5    0.00       0    75.5
 210    1:30   78.3    58    1.3   217      2.1   939.4    0.00       0    75.5
 210    1:40   78.6    57    1.1   221      2.0   939.4    0.00       0    75.8
 210    1:50   78.5    58    1.0   225      2.2   939.5    0.00       0    76.1
 210    2:00   78.7    58    0.5   333      1.9   939.5    0.00       0    76.3
 210    2:10   78.9    57    0.2   352      1.7   939.5    0.00       0    76.6
 210    2:20   78.9    56    0.5   138      1.9   939.5    0.00       0    76.8
 210    2:30   79.5    55    1.4   122      3.1   939.4    0.00       0    77.1
 210    2:40   79.7    56    1.4   115      3.3   939.3    0.00       0    77.4
 210    2:50   79.6    56    1.7   124      2.8   939.2    0.00       0    77.7
 210    3:00   79.7    56    2.2   116      4.1   939.2    0.00       0    77.8
 210    3:10   79.5    56    1.0   135      2.8   939.3    0.00       0    77.8
 210    3:20   78.9    57    0.8   131      2.1   939.2    0.00       0    77.3
 210    3:30   78.6    58    0.3   116      1.8   939.3    0.00       0    76.9
 210    3:40   78.2    59    0.2   146      1.2   939.3    0.00       0    76.5
 210    3:50   78.1    58    0.5   152      1.5   939.3    0.00       0    76.2
 210    4:00   78.0    59    0.2   141      1.2   939.2    0.00       0    75.9
 210    4:10   77.9    60    0.3   209      1.5   939.1    0.00       0    75.8
 210    4:20   78.0    59    1.4   169      2.8   939.1    0.00       0    75.7
 210    4:30   78.7    58    1.5   175      3.2   939.1    0.00       0    75.8
 210    4:40   78.5    59    0.4   204      1.5   939.2    0.00       0    75.7
 210    4:50   78.0    59    0.2   132      0.9   939.2    0.00       6    75.5
 210    5:00   77.9    60    0.1   152      0.8   939.2    0.00       7    75.3
 210    5:10   77.9    60    1.2   165      2.3   939.3    0.00      14    75.1
 210    5:20   78.0    59    1.1   181      2.3   939.4    0.00      22    75.1
 210    5:30   78.2    59    1.8   186      3.9   939.5    0.00      53    75.2
 210    5:40   79.1    57    0.9   148      2.3   939.6    0.00      84    75.6
 210    5:50   80.1    56    1.0   173      2.3   939.6    0.00     113    76.2
 210    6:00   81.5    53    1.5   157      3.6   939.6    0.00     147    77.1
 210    6:10   83.1    50    1.5   166      3.0   939.8    0.00     185    79.2
 210    6:20   83.8    48    1.4   127      2.6   939.9    0.00     220    81.7
 210    6:30   84.2    47    1.2   128      3.5   940.0    0.00     255    84.0
 210    6:40   84.5    47    1.7   117      3.7   940.1    0.00     291    85.9
 210    6:50   85.0    46    2.0    97      3.6   940.1    0.00     331    87.5
 210    7:00   86.9    43    0.6   105      2.1   940.2    0.00     375    89.5
 210    7:10   88.1    40    0.9    86      2.6   940.4    0.00     451    91.6
 210    7:20   88.4    41    1.5    21      6.1   940.5    0.00     561    93.4
 210    7:30   87.0    45    2.1    30      5.4   940.5    0.00     437    94.5
 210    7:40   85.9    46    2.9   330      6.1   940.5    0.00     490    93.8
 210    7:50   86.1    45    3.2   324      5.4   940.6    0.00     555    94.4
 210    8:00   87.0    44    2.6   320      6.1   940.6    0.00     572    95.1
 210    8:10   87.0    44    3.4   318      6.9   940.6    0.00     607    95.9
 210    8:20   88.1    41    2.7   327      5.3   940.6    0.00     645    96.7
 210    8:30   88.5    40    2.6   337      6.8   940.6    0.00     682    97.8
 210    8:40   89.7    39    1.2     3      3.9   940.6    0.00     716    98.8
 210    8:50   89.9    39    2.8   290      5.3   940.6    0.00     744    99.9
 210    9:00   89.3    39    2.7   307      6.3   940.7    0.00     768    100.1
 210    9:10   91.0    38    1.9   321      5.5   940.6    0.00     794    100.9
 210    9:20   91.0    38    2.7   326      7.3   940.5    0.00     824    101.5
 210    9:30   92.0    36    1.8     1      5.3   940.4    0.00     846    102.2
 210    9:40   92.7    35    2.4    57      6.1   940.4    0.00     869    102.8
 210    9:50   93.0    34    2.1    74      5.3   940.4    0.00     882    103.2
 210   10:00   93.2    33    4.0   320     11.9   940.3    0.00     971    103.9
 210   10:10   93.2    32    3.7   328      8.6   940.2    0.00     939    103.9
 210   10:20   94.6    31    2.5    56      5.8   940.1    0.00     953    104.2
 210   10:30   94.2    31    3.8   312      8.3   939.9    0.00     822    104.5
 210   10:40   93.1    32    2.8   304      7.1   939.9    0.00     869    103.8
 210   10:50   94.5    30    2.4   111      6.0   939.7    0.00     894    103.8
 210   11:00   95.4    29    1.8   331      4.7   939.6    0.00    1038    104.7
 210   11:10   96.1    29    3.8   125      7.2   939.4    0.00     959    105.1
 210   11:20   95.9    29    3.7   132      8.0   939.3    0.00     451    104.4
 210   11:30   94.9    30    1.8   188      4.5   939.2    0.00     424    102.6
 210   11:40   94.6    30    1.3   350      3.7   939.1    0.00     508    101.8
 210   11:50   95.9    29    1.7   304      5.1   939.0    0.00    1020    102.3
 210   12:00   96.5    28    3.5   314      7.7   938.9    0.00    1081    103.7
 210   12:10   95.6    28    3.6   279      9.1   938.7    0.00     650    103.7
 210   12:20   95.5    26    3.1   282     13.4   938.6    0.00     650    102.5
 210   12:30   97.7    21    4.9   246     10.6   938.4    0.00     913    102.6
 210   12:40   98.6    21    5.1   257     12.0   938.3    0.00    1022    103.2
 210   12:50   99.3    20    4.7   227     10.7   938.3    0.00    1009    103.8
 210   13:00   99.3    20    4.9   252     11.0   938.1    0.00    1028    104.3
 210   13:10   99.5    19    5.2   238     13.3   938.0    0.00     767    104.4
 210   13:20   99.2    19    4.9   244     11.0   937.9    0.00     692    104.2
 210   13:30   99.4    20    5.0   256     11.3   937.7    0.00     915    104.3
 210   13:40   99.6    21    4.5   252     10.4   937.7    0.00     996    105.4
 210   13:50   99.4    22    5.7   278     14.5   937.6    0.00     993    106.2
 210   14:00  100.3    20    4.3   260     11.0   937.5    0.00     985    106.7
 210   14:10  101.0    20    5.4   246     12.1   937.3    0.00     918    107.5
 210   14:20  100.4    19    5.6   235     13.5   937.2    0.00     781    107.4
 210   14:30   99.8    20    7.2   267     15.8   937.0    0.00     890    106.9
 210   14:40   99.8    21    6.3   274     14.3   936.9    0.00     814    106.8
 210   14:50  100.0    20    6.0   265     13.9   936.8    0.00     813    106.7
 210   15:00   99.6    20    5.2   265     12.3   936.8    0.00     793    106.7
 210   15:10  100.3    19    5.7   248     12.4   936.7    0.00     774    106.8
 210   15:20  100.8    19    4.4   218     11.8   936.7    0.00     717    107.0
 210   15:30   99.6    20    8.5   272     13.7   936.6    0.00     533    106.7
 210   15:40   98.4    20    6.1   271     12.8   936.5    0.00     427    105.3
 210   15:50   99.5    20    4.9   258     11.5   936.4    0.00     541    104.4
 210   16:00   99.4    21    4.1   257     13.0   936.3    0.00     569    104.7
 210   16:10  100.0    20    4.4   275     12.6   936.2    0.00     534    105.1
 210   16:20   98.7    21    7.5   291     14.2   936.1    0.00     482    104.9
 210   16:30   98.6    21    6.6   299     12.1   936.0    0.00     454    104.3
 210   16:40   99.3    20    5.4   280     10.6   935.9    0.00     418    103.9
 210   16:50   99.2    19    5.0   253     12.4   935.8    0.00     381    103.8
 210   17:00   99.0    19    4.9   270     12.1   935.7    0.00     339    103.6
 210   17:10   98.7    19    5.9   290     13.4   935.6    0.00     293    103.3
 210   17:20   98.8    19    4.0   289     10.4   935.7    0.00     262    102.8
 210   17:30   99.1    18    4.8   246      9.8   935.7    0.00     222    102.4
 210   17:40   98.9    18    4.6   265     11.2   935.6    0.00     197    102.0
 210   17:50   98.8    18    3.7   259      8.4   935.6    0.00     165    101.5
 210   18:00   98.1    18    5.6   268      9.5   935.7    0.00     129    101.0
 210   18:10   97.9    18    3.5   248      8.4   935.7    0.00      85    100.2
 210   18:20   97.7    18    3.1   246      8.6   935.6    0.00      61    99.4
 210   18:30   96.5    19    3.6   275      7.2   935.7    0.00      27    98.2
 210   18:40   95.6    20    3.5   280      7.2   935.7    0.00       9    96.7
 210   18:50   95.1    22    2.5   285      5.0   935.7    0.00       7    95.4
 210   19:00   94.4    22    2.1   278      4.0   935.8    0.00       3    94.2
 210   19:10   94.7    21    3.4   271      5.3   935.8    0.00       0    93.2
 210   19:20   94.7    21    2.7   273      5.2   935.9    0.00       0    92.7
 210   19:30   94.7    21    2.0   261      5.1   936.0    0.00       0    92.2
 210   19:40   94.6    21    1.7   241      4.7   936.1    0.00       0    91.9
 210   19:50   94.6    21    2.9   243      6.7   936.2    0.00       0    91.7
 210   20:00   94.5    21    3.1   243      9.3   936.3    0.00       0    91.8
 210   20:10   94.2    21    3.1   253      6.9   936.4    0.00       0    91.7
 210   20:20   94.1    22    4.2   264      7.5   936.5    0.00       0    91.6
 210   20:30   94.0    22    3.4   258      7.5   936.5    0.00       0    91.4
 210   20:40   93.7    22    2.9   251      6.8   936.5    0.00       0    91.1
 210   20:50   93.6    22    3.6   259      6.6   936.5    0.00       0    90.9
 210   21:00   93.3    23    4.2   269      7.1   936.6    0.00       0    90.6
 210   21:10   92.9    24    2.9   271      5.8   936.6    0.00       0    90.4
 210   21:20   92.6    24    3.1   267      5.9   936.6    0.00       0    89.9
 210   21:30   92.5    24    3.4   266      5.6   936.7    0.00       0    89.6
 210   21:40   91.8    25    2.3   273      3.9   936.7    0.00       0    89.3
 210   21:50   91.2    26    1.9   268      3.4   936.7    0.00       0    88.7
 210   22:00   90.4    27    0.4   187      2.2   936.7    0.00       0    88.0
 210   22:10   89.4    28    0.5   143      1.3   936.8    0.00       0    87.3
 210   22:20   89.3    28    1.5   162      2.8   936.9    0.00       0    86.7
 210   22:30   89.2    28    1.2   153      3.1   936.9    0.00       0    86.3
 210   22:40   89.1    28    0.9   147      2.3   936.9    0.00       0    86.0
 210   22:50   88.6    29    0.9   154      2.1   936.9    0.00       0    85.6
 210   23:00   88.5    29    1.5   109      2.9   936.9    0.00       0    85.3
 210   23:10   88.5    30    1.0   231      3.7   936.9    0.00       0    85.2
 210   23:20   87.9    31    0.8   254      2.5   936.8    0.00       0    84.8

Return to Henderson, Nevada graphs page.


Western Regional Climate Center,wrcc@dri.edu